Gulbeniz A — TCZK8 — position and weather

sailwx.info

Track history (hours):
 
Tides and Currents Weather Stations Pressure Air Temp Water Temp Dewpoint Dewpoint Depression Visibility Wind Speed Wind Dir Waves Ship Positions

Gulbeniz A

Last reported at 2018-Jun-21 16:28 UTC. Time now 2018-Jun-21 16:28 UTC.
Position N 41°21' E 002°10'.

Length 210 m; draft 10.8 m.

Type: Ship (hazmat cat A). MMSI: 271042493.

Date/timePositionNaut miles runAvg speedWind from/ knotsBaromVisibWave heightAir tempDewpointWater temp
2018-Jun-21 16:28N 41°21' E 002°10'0 0.0
2018-Jun-21 15:58N 41°21' E 002°10'0 0.0
2018-Jun-21 15:28N 41°21' E 002°10'0 0.0
2018-Jun-21 14:58N 41°21' E 002°10'0 0.0
2018-Jun-21 14:28N 41°21' E 002°10'0 0.0
2018-Jun-21 13:58N 41°21' E 002°10'0 0.0
2018-Jun-21 13:28N 41°21' E 002°10'0 0.0
2018-Jun-21 12:58N 41°21' E 002°10'0 0.0
2018-Jun-21 12:28N 41°21' E 002°10'0 0.0
2018-Jun-21 11:58N 41°21' E 002°10'0 0.0
2018-Jun-21 11:25N 41°21' E 002°10'0 0.0
2018-Jun-21 10:58N 41°21' E 002°10'0 0.0
2018-Jun-21 10:28N 41°21' E 002°10'0 0.0
2018-Jun-21 09:58N 41°21' E 002°10'0 0.0
2018-Jun-21 09:28N 41°21' E 002°10'0 0.0
2018-Jun-21 08:52N 41°21' E 002°10'0 0.0
2018-Jun-21 08:28N 41°21' E 002°10'0 0.0
2018-Jun-21 07:58N 41°21' E 002°10'0 0.0
2018-Jun-21 07:28N 41°21' E 002°10'0 0.0
2018-Jun-21 06:58N 41°21' E 002°10'0 0.0
2018-Jun-21 06:28N 41°21' E 002°10'0 0.0
2018-Jun-21 05:58N 41°21' E 002°10'0 0.0
2018-Jun-21 05:28N 41°21' E 002°10'0 0.0
2018-Jun-21 04:58N 41°21' E 002°10'0 0.8
2018-Jun-21 04:30N 41°21' E 002°10'3 5.7
2018-Jun-21 04:00N 41°18' E 002°11'4 8.1
2018-Jun-21 03:30N 41°14' E 002°09'612.7
2018-Jun-21 03:00N 41°09' E 002°04'714.0
2018-Jun-21 02:30N 41°04' E 001°58'714.2
2018-Jun-21 02:00N 40°58' E 001°52'714.2
2018-Jun-21 01:30N 40°52' E 001°46'714.4
2018-Jun-21 01:00N 40°47' E 001°41'814.7
2018-Jun-21 00:28N 40°41' E 001°34'714.3
2018-Jun-21 00:00N 40°36' E 001°27'714.2
2018-Jun-20 23:30N 40°32' E 001°20'4214.1
2018-Jun-20 20:30N 40°09' E 000°33'56 2.4
2018-Jun-19 20:53N 39°27' W 000°14'4 9.5
2018-Jun-19 20:30N 39°26' W 000°19'1 1.9
2018-Jun-19 19:58N 39°27' W 000°19'0 0.0
2018-Jun-19 19:28N 39°27' W 000°19'0 0.0
2018-Jun-19 18:58N 39°27' W 000°19'0 0.0
2018-Jun-19 18:28N 39°27' W 000°19'0 0.0
2018-Jun-19 17:58N 39°27' W 000°19'0 0.0
2018-Jun-19 17:28N 39°27' W 000°19'0 0.0
2018-Jun-19 16:58N 39°27' W 000°19'0 0.0
2018-Jun-19 16:28N 39°27' W 000°19'0 0.0
2018-Jun-19 15:58N 39°27' W 000°19'0 0.0
2018-Jun-19 15:28N 39°27' W 000°19'0 0.0
2018-Jun-19 14:58N 39°27' W 000°19'0 0.0
2018-Jun-19 14:28N 39°27' W 000°19'0 0.0
2018-Jun-19 13:52N 39°27' W 000°19'0 0.0
2018-Jun-19 13:28N 39°27' W 000°19'0 0.0
2018-Jun-19 12:58N 39°27' W 000°19'0 0.0
2018-Jun-19 12:22N 39°27' W 000°19'0 0.0
2018-Jun-19 11:58N 39°27' W 000°19'0 0.0
2018-Jun-19 11:28N 39°27' W 000°19'0 0.0
2018-Jun-19 10:58N 39°27' W 000°19'0 0.0
2018-Jun-19 10:28N 39°27' W 000°19'0 0.0
2018-Jun-19 09:58N 39°27' W 000°19'0 0.0
2018-Jun-19 09:28N 39°27' W 000°19'0 0.0
2018-Jun-19 08:58N 39°27' W 000°19'0 0.0
2018-Jun-19 08:28N 39°27' W 000°19'0 0.0
2018-Jun-19 07:58N 39°27' W 000°19'0 0.0
2018-Jun-19 07:28N 39°27' W 000°19'0 0.0
2018-Jun-19 06:58N 39°27' W 000°19'0 0.0
2018-Jun-19 06:28N 39°27' W 000°19'0 0.0
2018-Jun-19 05:58N 39°27' W 000°19'0 0.0
2018-Jun-19 05:28N 39°27' W 000°19'0 0.0
2018-Jun-19 04:58N 39°27' W 000°19'0 0.0
2018-Jun-19 04:28N 39°27' W 000°19'0 0.0
2018-Jun-19 03:58N 39°27' W 000°19'0 0.0
2018-Jun-19 03:28N 39°27' W 000°19'0 0.0
2018-Jun-19 00:22N 39°27' W 000°19'0 0.0
2018-Jun-18 23:58N 39°27' W 000°19'0 0.0
2018-Jun-18 23:28N 39°27' W 000°19'0 0.0
2018-Jun-18 22:58N 39°27' W 000°19'0 0.0
2018-Jun-18 22:25N 39°27' W 000°19'0 0.0
2018-Jun-18 21:58N 39°27' W 000°19'0 0.0
2018-Jun-18 21:28N 39°27' W 000°19'0 0.0
2018-Jun-18 20:46N 39°27' W 000°19'0 0.0
2018-Jun-18 20:28N 39°27' W 000°19'0 0.0
2018-Jun-18 19:58N 39°27' W 000°19'0 0.0
2018-Jun-18 19:28N 39°27' W 000°19'0 0.0
2018-Jun-18 18:55N 39°27' W 000°19'0 0.0
2018-Jun-18 18:28N 39°27' W 000°19'0 0.0
2018-Jun-18 17:58N 39°27' W 000°19'0 0.0
2018-Jun-18 17:30N 39°27' W 000°19'1 2.4
2018-Jun-18 17:00N 39°26' W 000°19'0 0.0
2018-Jun-18 05:00N 39°26' W 000°19'0 0.1
2018-Jun-18 04:30N 39°26' W 000°19'1 3.0
2018-Jun-18 04:00N 39°25' W 000°17'511.0
2018-Jun-18 03:30N 39°24' W 000°10'2114.9
2018-Jun-18 02:08N 39°21' E 000°16'215.2
2018-Jun-18 02:01N 39°21' E 000°18'4715.0
2018-Jun-17 22:54N 39°14' E 001°18'614.5
2018-Jun-17 22:30N 39°13' E 001°25'4014.3
2018-Jun-17 19:42N 39°07' E 002°16'614.6
2018-Jun-17 19:17N 39°06' E 002°24'414.7
2018-Jun-17 19:00N 39°06' E 002°29'714.7
2018-Jun-17 18:30N 39°05' E 002°39'714.7
2018-Jun-17 18:00N 39°04' E 002°48'814.6
2018-Jun-17 17:29N 39°03' E 002°58'714.8
2018-Jun-17 17:00N 39°02' E 003°07'714.4
2018-Jun-17 16:29N 39°00' E 003°16'814.4
2018-Jun-17 15:55N 38°59' E 003°27'1014.6
2018-Jun-17 15:13N 38°57' E 003°40'1614.8
2018-Jun-17 14:10N 38°54' E 003°59'45415.2
2018-Jun-16 08:17N 37°04' E 013°18'415.8
2018-Jun-16 08:00N 37°03' E 013°23'815.9
2018-Jun-16 07:30N 36°60' E 013°32'816.0
2018-Jun-16 07:00N 36°56' E 013°41'815.5
2018-Jun-16 06:30N 36°53' E 013°50'815.6
2018-Jun-16 06:00N 36°50' E 013°59'815.6
2018-Jun-16 05:30N 36°47' E 014°08'45515.4
2018-Jun-15 00:01N 36°56' E 023°37'717.7
2018-Jun-14 23:36N 37°02' E 023°42'217.7
2018-Jun-14 23:30N 37°04' E 023°43'8116.5
2018-Jun-14 18:35N 38°08' E 024°44'116.0
2018-Jun-14 18:30N 38°09' E 024°45'2216.1
2018-Jun-14 17:09N 38°24' E 025°06'78 3.5
2018-Jun-13 19:14N 39°35' E 025°47'718.8
2018-Jun-13 18:51N 39°42' E 025°48'719.1
2018-Jun-13 18:30N 39°49' E 025°49'  
Track history (hours):
 
Tides and Currents Weather Stations Pressure Air Temp Water Temp Dewpoint Dewpoint Depression Visibility Wind Speed Wind Dir Waves Ship Positions

Gulbeniz A

Last reported at 2018-Jun-21 16:28 UTC. Time now 2018-Jun-21 16:28 UTC.
Position N 41°21' E 002°10'.

Length 210 m; draft 10.8 m.

Type: Ship (hazmat cat A). MMSI: 271042493.

Date/timePositionNaut miles runAvg speedWind from/ knotsBaromVisibWave heightAir tempDewpointWater temp
2018-Jun-21 16:28N 41°21' E 002°10'0 0.0
2018-Jun-21 15:58N 41°21' E 002°10'0 0.0
2018-Jun-21 15:28N 41°21' E 002°10'0 0.0
2018-Jun-21 14:58N 41°21' E 002°10'0 0.0
2018-Jun-21 14:28N 41°21' E 002°10'0 0.0
2018-Jun-21 13:58N 41°21' E 002°10'0 0.0
2018-Jun-21 13:28N 41°21' E 002°10'0 0.0
2018-Jun-21 12:58N 41°21' E 002°10'0 0.0
2018-Jun-21 12:28N 41°21' E 002°10'0 0.0
2018-Jun-21 11:58N 41°21' E 002°10'0 0.0
2018-Jun-21 11:25N 41°21' E 002°10'0 0.0
2018-Jun-21 10:58N 41°21' E 002°10'0 0.0
2018-Jun-21 10:28N 41°21' E 002°10'0 0.0
2018-Jun-21 09:58N 41°21' E 002°10'0 0.0
2018-Jun-21 09:28N 41°21' E 002°10'0 0.0
2018-Jun-21 08:52N 41°21' E 002°10'0 0.0
2018-Jun-21 08:28N 41°21' E 002°10'0 0.0
2018-Jun-21 07:58N 41°21' E 002°10'0 0.0
2018-Jun-21 07:28N 41°21' E 002°10'0 0.0
2018-Jun-21 06:58N 41°21' E 002°10'0 0.0
2018-Jun-21 06:28N 41°21' E 002°10'0 0.0
2018-Jun-21 05:58N 41°21' E 002°10'0 0.0
2018-Jun-21 05:28N 41°21' E 002°10'0 0.0
2018-Jun-21 04:58N 41°21' E 002°10'0 0.8
2018-Jun-21 04:30N 41°21' E 002°10'3 5.7
2018-Jun-21 04:00N 41°18' E 002°11'4 8.1
2018-Jun-21 03:30N 41°14' E 002°09'612.7
2018-Jun-21 03:00N 41°09' E 002°04'714.0
2018-Jun-21 02:30N 41°04' E 001°58'714.2
2018-Jun-21 02:00N 40°58' E 001°52'714.2
2018-Jun-21 01:30N 40°52' E 001°46'714.4
2018-Jun-21 01:00N 40°47' E 001°41'814.7
2018-Jun-21 00:28N 40°41' E 001°34'714.3
2018-Jun-21 00:00N 40°36' E 001°27'714.2
2018-Jun-20 23:30N 40°32' E 001°20'4214.1
2018-Jun-20 20:30N 40°09' E 000°33'56 2.4
2018-Jun-19 20:53N 39°27' W 000°14'4 9.5
2018-Jun-19 20:30N 39°26' W 000°19'1 1.9
2018-Jun-19 19:58N 39°27' W 000°19'0 0.0
2018-Jun-19 19:28N 39°27' W 000°19'0 0.0
2018-Jun-19 18:58N 39°27' W 000°19'0 0.0
2018-Jun-19 18:28N 39°27' W 000°19'0 0.0
2018-Jun-19 17:58N 39°27' W 000°19'0 0.0
2018-Jun-19 17:28N 39°27' W 000°19'0 0.0
2018-Jun-19 16:58N 39°27' W 000°19'0 0.0
2018-Jun-19 16:28N 39°27' W 000°19'0 0.0
2018-Jun-19 15:58N 39°27' W 000°19'0 0.0
2018-Jun-19 15:28N 39°27' W 000°19'0 0.0
2018-Jun-19 14:58N 39°27' W 000°19'0 0.0
2018-Jun-19 14:28N 39°27' W 000°19'0 0.0
2018-Jun-19 13:52N 39°27' W 000°19'0 0.0
2018-Jun-19 13:28N 39°27' W 000°19'0 0.0
2018-Jun-19 12:58N 39°27' W 000°19'0 0.0
2018-Jun-19 12:22N 39°27' W 000°19'0 0.0
2018-Jun-19 11:58N 39°27' W 000°19'0 0.0
2018-Jun-19 11:28N 39°27' W 000°19'0 0.0
2018-Jun-19 10:58N 39°27' W 000°19'0 0.0
2018-Jun-19 10:28N 39°27' W 000°19'0 0.0
2018-Jun-19 09:58N 39°27' W 000°19'0 0.0
2018-Jun-19 09:28N 39°27' W 000°19'0 0.0
2018-Jun-19 08:58N 39°27' W 000°19'0 0.0
2018-Jun-19 08:28N 39°27' W 000°19'0 0.0
2018-Jun-19 07:58N 39°27' W 000°19'0 0.0
2018-Jun-19 07:28N 39°27' W 000°19'0 0.0
2018-Jun-19 06:58N 39°27' W 000°19'0 0.0
2018-Jun-19 06:28N 39°27' W 000°19'0 0.0
2018-Jun-19 05:58N 39°27' W 000°19'0 0.0
2018-Jun-19 05:28N 39°27' W 000°19'0 0.0
2018-Jun-19 04:58N 39°27' W 000°19'0 0.0
2018-Jun-19 04:28N 39°27' W 000°19'0 0.0
2018-Jun-19 03:58N 39°27' W 000°19'0 0.0
2018-Jun-19 03:28N 39°27' W 000°19'0 0.0
2018-Jun-19 00:22N 39°27' W 000°19'0 0.0
2018-Jun-18 23:58N 39°27' W 000°19'0 0.0
2018-Jun-18 23:28N 39°27' W 000°19'0 0.0
2018-Jun-18 22:58N 39°27' W 000°19'0 0.0
2018-Jun-18 22:25N 39°27' W 000°19'0 0.0
2018-Jun-18 21:58N 39°27' W 000°19'0 0.0
2018-Jun-18 21:28N 39°27' W 000°19'0 0.0
2018-Jun-18 20:46N 39°27' W 000°19'0 0.0
2018-Jun-18 20:28N 39°27' W 000°19'0 0.0
2018-Jun-18 19:58N 39°27' W 000°19'0 0.0
2018-Jun-18 19:28N 39°27' W 000°19'0 0.0
2018-Jun-18 18:55N 39°27' W 000°19'0 0.0
2018-Jun-18 18:28N 39°27' W 000°19'0 0.0
2018-Jun-18 17:58N 39°27' W 000°19'0 0.0
2018-Jun-18 17:30N 39°27' W 000°19'1 2.4
2018-Jun-18 17:00N 39°26' W 000°19'0 0.0
2018-Jun-18 05:00N 39°26' W 000°19'0 0.1
2018-Jun-18 04:30N 39°26' W 000°19'1 3.0
2018-Jun-18 04:00N 39°25' W 000°17'511.0
2018-Jun-18 03:30N 39°24' W 000°10'2114.9
2018-Jun-18 02:08N 39°21' E 000°16'215.2
2018-Jun-18 02:01N 39°21' E 000°18'4715.0
2018-Jun-17 22:54N 39°14' E 001°18'614.5
2018-Jun-17 22:30N 39°13' E 001°25'4014.3
2018-Jun-17 19:42N 39°07' E 002°16'614.6
2018-Jun-17 19:17N 39°06' E 002°24'414.7
2018-Jun-17 19:00N 39°06' E 002°29'714.7
2018-Jun-17 18:30N 39°05' E 002°39'714.7
2018-Jun-17 18:00N 39°04' E 002°48'814.6
2018-Jun-17 17:29N 39°03' E 002°58'714.8
2018-Jun-17 17:00N 39°02' E 003°07'714.4
2018-Jun-17 16:29N 39°00' E 003°16'814.4
2018-Jun-17 15:55N 38°59' E 003°27'1014.6
2018-Jun-17 15:13N 38°57' E 003°40'1614.8
2018-Jun-17 14:10N 38°54' E 003°59'45415.2
2018-Jun-16 08:17N 37°04' E 013°18'415.8
2018-Jun-16 08:00N 37°03' E 013°23'815.9
2018-Jun-16 07:30N 36°60' E 013°32'816.0
2018-Jun-16 07:00N 36°56' E 013°41'815.5
2018-Jun-16 06:30N 36°53' E 013°50'815.6
2018-Jun-16 06:00N 36°50' E 013°59'815.6
2018-Jun-16 05:30N 36°47' E 014°08'45515.4
2018-Jun-15 00:01N 36°56' E 023°37'717.7
2018-Jun-14 23:36N 37°02' E 023°42'217.7
2018-Jun-14 23:30N 37°04' E 023°43'8116.5
2018-Jun-14 18:35N 38°08' E 024°44'116.0
2018-Jun-14 18:30N 38°09' E 024°45'2216.1
2018-Jun-14 17:09N 38°24' E 025°06'78 3.5
2018-Jun-13 19:14N 39°35' E 025°47'718.8
2018-Jun-13 18:51N 39°42' E 025°48'719.1
2018-Jun-13 18:30N 39°49' E 025°49'  

Dump ship's entire track history